Time;durP1;ratioP1;P1;durP2;ratioP2;P2;SDS_P1;SDS_P2;PMS_P1;PMS_P2;Temp;Humidity;BMP_temperature;BMP_pressure;BME280_temperature;BME280_humidity;BME280_pressure;Samples;Min_cycle;Max_cycle;Signal;HPM_P1;HPM_P2
2022/09/05 00:02:46;;;;;;;5.90;3.60;;;17.90;99.90;;;;;;5075798;28;20473;-52
2022/09/05 00:05:42;;;;;;;5.83;3.40;;;17.90;99.90;;;;;;5058369;28;20542;-51
2022/09/05 00:08:17;;;;;;;5.80;3.80;;;17.90;99.90;;;;;;5065915;28;20803;-48
2022/09/05 00:10:50;;;;;;;4.20;3.40;;;17.80;99.90;;;;;;5076919;28;20446;-51
2022/09/05 00:13:22;;;;;;;10.00;3.67;;;17.90;99.90;;;;;;5076937;28;20435;-48
2022/09/05 00:16:00;;;;;;;3.83;2.97;;;17.90;99.90;;;;;;5076864;28;20450;-53
2022/09/05 00:18:47;;;;;;;5.20;3.77;;;17.80;99.90;;;;;;5062144;28;20435;-47
2022/09/05 00:21:31;;;;;;;5.50;3.90;;;17.80;99.90;;;;;;5076980;28;20923;-48
2022/09/05 00:24:12;;;;;;;4.37;3.33;;;17.80;99.90;;;;;;5077508;28;20480;-51
2022/09/05 00:26:49;;;;;;;4.50;3.17;;;17.80;99.90;;;;;;5075568;28;20958;-52
2022/09/05 00:29:24;;;;;;;6.30;3.67;;;17.70;99.90;;;;;;5076707;28;20433;-52
2022/09/05 00:32:01;;;;;;;5.13;3.33;;;17.80;99.90;;;;;;5076444;28;20470;-53
2022/09/05 00:34:58;;;;;;;3.27;2.80;;;17.70;99.90;;;;;;5076350;28;20435;-53
2022/09/05 00:37:30;;;;;;;3.07;2.70;;;17.70;99.90;;;;;;5076063;28;20465;-53
2022/09/05 00:40:29;;;;;;;6.03;3.43;;;17.60;99.90;;;;;;5076197;28;20846;-51
2022/09/05 00:43:00;;;;;;;4.53;3.03;;;17.60;99.90;;;;;;5070989;28;20482;-50
2022/09/05 00:45:35;;;;;;;5.20;3.93;;;17.60;99.90;;;;;;5076310;28;20442;-47
2022/09/05 00:48:22;;;;;;;6.10;3.97;;;17.60;99.90;;;;;;5075850;28;20430;-49
2022/09/05 00:51:05;;;;;;;7.53;4.30;;;17.50;99.90;;;;;;5076213;28;20470;-45
2022/09/05 00:53:43;;;;;;;6.40;3.57;;;17.50;99.90;;;;;;5075960;28;20431;-49
2022/09/05 00:56:26;;;;;;;4.00;3.43;;;17.40;99.90;;;;;;5076462;28;20473;-47
2022/09/05 00:59:30;;;;;;;6.47;3.20;;;17.40;99.90;;;;;;5076121;28;20469;-51
2022/09/05 01:02:04;;;;;;;5.23;3.80;;;17.40;99.90;;;;;;5073455;28;20747;-48
2022/09/05 01:04:42;;;;;;;3.83;3.03;;;17.40;99.90;;;;;;5076205;28;20423;-49
2022/09/05 01:07:29;;;;;;;5.70;3.97;;;17.50;99.90;;;;;;5076085;28;20545;-50
2022/09/05 01:10:07;;;;;;;3.73;3.43;;;17.40;99.90;;;;;;5075718;28;20445;-47
2022/09/05 01:12:50;;;;;;;6.30;4.27;;;17.40;99.90;;;;;;5075158;28;20441;-49
2022/09/05 01:15:25;;;;;;;10.73;4.30;;;17.40;99.90;;;;;;5075115;28;20474;-47
2022/09/05 01:18:10;;;;;;;6.47;3.80;;;17.30;99.90;;;;;;5075518;28;20537;-52
2022/09/05 01:20:52;;;;;;;3.70;3.40;;;17.30;99.90;;;;;;5075415;28;20466;-53
2022/09/05 01:23:49;;;;;;;5.57;3.50;;;17.30;99.90;;;;;;5075641;28;20812;-51
2022/09/05 01:26:37;;;;;;;3.70;3.00;;;17.20;99.90;;;;;;5075101;28;20473;-52
2022/09/05 01:29:14;;;;;;;5.57;3.47;;;17.20;99.90;;;;;;5075527;28;20438;-49
2022/09/05 01:31:50;;;;;;;4.30;3.70;;;17.10;99.90;;;;;;5075411;28;20442;-52
2022/09/05 01:34:26;;;;;;;4.27;3.87;;;17.10;99.90;;;;;;5075737;28;20903;-51
2022/09/05 01:37:02;;;;;;;7.03;3.90;;;17.10;99.90;;;;;;5074906;28;20430;-50
2022/09/05 01:39:43;;;;;;;6.43;3.90;;;17.20;99.90;;;;;;5075354;28;20466;-49
2022/09/05 01:42:28;;;;;;;5.27;3.90;;;17.10;99.90;;;;;;5075053;28;20453;-54
2022/09/05 01:45:02;;;;;;;5.83;3.87;;;17.10;99.90;;;;;;5075040;28;20482;-51
2022/09/05 01:47:43;;;;;;;5.17;3.70;;;17.00;99.90;;;;;;5055924;28;20434;-52
2022/09/05 01:50:20;;;;;;;7.07;3.80;;;16.90;99.90;;;;;;5074903;28;20474;-51
2022/09/05 01:53:10;;;;;;;6.20;3.80;;;17.00;99.90;;;;;;5074649;28;20895;-52
2022/09/05 01:56:00;;;;;;;6.37;4.67;;;16.90;99.90;;;;;;5075827;28;20497;-48
2022/09/05 01:58:39;;;;;;;4.57;3.80;;;16.90;99.90;;;;;;5076584;28;21881;-54
2022/09/05 02:01:14;;;;;;;4.83;4.07;;;16.90;99.90;;;;;;5074724;28;20892;-48
2022/09/05 02:03:47;;;;;;;4.87;4.30;;;16.80;99.90;;;;;;5074538;28;20476;-49
2022/09/05 02:06:35;;;;;;;8.00;4.50;;;16.90;99.90;;;;;;5075070;28;20430;-48
2022/09/05 02:09:24;;;;;;;11.60;4.10;;;16.80;99.90;;;;;;5074805;28;20450;-49
2022/09/05 02:11:57;;;;;;;7.73;5.10;;;16.80;99.90;;;;;;5075659;28;20446;-44
2022/09/05 02:14:35;;;;;;;7.43;4.20;;;16.80;99.90;;;;;;5075001;28;20535;-51
2022/09/05 02:17:26;;;;;;;5.67;3.67;;;16.70;99.90;;;;;;5074461;28;20450;-49
2022/09/05 02:19:57;;;;;;;3.60;3.00;;;16.60;99.90;;;;;;5074344;28;20474;-48
2022/09/05 02:22:34;;;;;;;6.13;4.03;;;16.60;99.90;;;;;;5074169;28;20443;-48
2022/09/05 02:25:13;;;;;;;6.23;5.60;;;16.60;99.90;;;;;;5074451;28;20442;-51
2022/09/05 02:27:47;;;;;;;4.87;4.30;;;16.60;99.90;;;;;;5074751;28;20446;-47
2022/09/05 02:30:19;;;;;;;4.03;3.60;;;16.60;99.90;;;;;;5074919;28;20423;-50
2022/09/05 02:33:06;;;;;;;6.27;4.30;;;16.60;99.90;;;;;;5074238;28;20467;-53
2022/09/05 02:35:41;;;;;;;4.40;3.60;;;16.60;99.90;;;;;;5074680;28;20470;-48
2022/09/05 02:38:13;;;;;;;4.50;4.10;;;16.60;99.90;;;;;;5074245;28;20539;-50
2022/09/05 02:40:48;;;;;;;4.50;3.90;;;16.60;99.90;;;;;;5074581;28;20440;-52
2022/09/05 02:43:25;;;;;;;4.37;3.97;;;16.50;99.90;;;;;;5074025;28;20527;-47
2022/09/05 02:46:01;;;;;;;4.23;3.57;;;16.50;99.90;;;;;;5074190;28;20433;-54
2022/09/05 02:48:36;;;;;;;9.40;4.50;;;16.50;99.90;;;;;;5074167;28;20855;-53
2022/09/05 02:51:13;;;;;;;5.70;3.80;;;16.50;99.90;;;;;;5074422;28;20484;-53
2022/09/05 02:53:44;;;;;;;4.87;3.87;;;16.50;99.90;;;;;;5074488;28;20512;-53
2022/09/05 02:56:29;;;;;;;7.70;4.63;;;16.40;99.90;;;;;;5074251;28;20466;-50
2022/09/05 02:59:04;;;;;;;11.80;4.50;;;16.40;99.90;;;;;;5074406;28;20923;-44
2022/09/05 03:01:47;;;;;;;3.77;3.47;;;16.40;99.90;;;;;;5074209;28;20517;-52
2022/09/05 03:04:27;;;;;;;6.30;5.07;;;16.40;99.90;;;;;;5074199;28;20863;-54
2022/09/05 03:07:08;;;;;;;6.80;4.20;;;16.40;99.90;;;;;;5074221;28;20434;-46
2022/09/05 03:09:46;;;;;;;5.17;4.40;;;16.30;99.90;;;;;;5074040;28;20417;-51
2022/09/05 03:12:40;;;;;;;5.00;3.40;;;16.30;99.90;;;;;;5074316;28;20445;-51
2022/09/05 03:15:44;;;;;;;8.23;3.87;;;16.30;99.90;;;;;;5074310;28;20902;-48
2022/09/05 03:18:47;;;;;;;6.73;3.37;;;16.30;99.90;;;;;;5067916;28;20465;-55
2022/09/05 03:22:02;;;;;;;5.73;3.37;;;16.30;99.90;;;;;;5074597;28;20935;-52
2022/09/05 03:25:10;;;;;;;6.47;3.50;;;16.20;99.90;;;;;;4999619;28;20548;-53
2022/09/05 03:28:13;;;;;;;3.60;3.30;;;16.20;99.90;;;;;;5073775;28;20473;-50
2022/09/05 03:30:59;;;;;;;6.30;3.47;;;16.20;99.90;;;;;;5074138;28;20430;-48
2022/09/05 03:33:50;;;;;;;4.37;3.93;;;16.20;99.90;;;;;;5075856;28;20458;-46
2022/09/05 03:36:53;;;;;;;5.30;3.30;;;16.20;99.90;;;;;;5077301;28;20426;-49
2022/09/05 03:39:47;;;;;;;5.83;3.97;;;16.20;99.90;;;;;;5077188;28;20472;-53
2022/09/05 03:42:41;;;;;;;8.20;4.17;;;16.20;99.90;;;;;;5063647;28;20446;-46
2022/09/05 03:45:42;;;;;;;7.13;3.13;;;16.20;99.90;;;;;;5077123;28;20462;-49
2022/09/05 03:48:31;;;;;;;6.27;3.40;;;16.20;99.90;;;;;;5076561;28;20902;-48
2022/09/05 03:51:10;;;;;;;5.53;3.90;;;16.10;99.90;;;;;;5076154;28;20584;-43
2022/09/05 03:53:57;;;;;;;7.97;4.13;;;16.10;99.90;;;;;;5076816;28;20427;-45
2022/09/05 03:56:56;;;;;;;6.70;3.60;;;16.10;99.90;;;;;;5080116;28;20478;-49
2022/09/05 03:59:53;;;;;;;6.50;3.67;;;16.10;99.90;;;;;;5078685;28;20787;-46
2022/09/05 04:02:23;;;;;;;3.33;2.90;;;16.10;99.90;;;;;;5060692;28;20484;-48
2022/09/05 04:04:59;;;;;;;6.60;3.40;;;16.10;99.90;;;;;;5077296;28;20477;-49
2022/09/05 04:07:30;;;;;;;6.13;3.97;;;16.00;99.90;;;;;;5077566;28;20438;-48
2022/09/05 04:10:00;;;;;;;4.43;3.93;;;16.00;99.90;;;;;;5077521;28;20871;-49
2022/09/05 04:12:35;;;;;;;7.10;3.50;;;16.00;99.90;;;;;;5077107;28;20450;-44
2022/09/05 04:15:06;;;;;;;5.43;3.83;;;15.90;99.90;;;;;;5077263;28;20461;-47
2022/09/05 04:17:36;;;;;;;3.47;2.50;;;15.90;99.90;;;;;;5077637;28;20446;-51
2022/09/05 04:20:12;;;;;;;4.53;3.40;;;15.90;99.90;;;;;;5077292;28;20461;-47
2022/09/05 04:23:04;;;;;;;9.97;3.77;;;15.90;99.90;;;;;;5077417;28;20744;-54
2022/09/05 04:25:48;;;;;;;4.90;3.93;;;15.90;99.90;;;;;;5076667;28;20448;-48
2022/09/05 04:28:21;;;;;;;4.87;3.90;;;15.90;99.90;;;;;;5076957;28;20466;-50
2022/09/05 04:30:52;;;;;;;6.67;3.87;;;15.90;99.90;;;;;;5077520;28;20515;-56
2022/09/05 04:33:25;;;;;;;6.47;4.30;;;15.90;99.90;;;;;;5077182;28;20458;-49
2022/09/05 04:36:02;;;;;;;3.80;2.93;;;15.80;99.90;;;;;;5077218;28;20435;-51
2022/09/05 04:38:38;;;;;;;8.50;3.10;;;15.80;99.90;;;;;;5076694;28;20453;-51
2022/09/05 04:41:10;;;;;;;6.07;3.27;;;15.80;99.90;;;;;;5076873;28;20837;-46
2022/09/05 04:43:43;;;;;;;7.93;3.40;;;15.80;99.90;;;;;;5076567;28;20466;-48
2022/09/05 04:46:17;;;;;;;6.30;4.20;;;15.80;99.90;;;;;;5076920;28;20470;-50
2022/09/05 04:48:50;;;;;;;6.97;3.87;;;15.90;99.90;;;;;;5077601;28;20441;-53
2022/09/05 04:51:52;;;;;;;7.30;3.50;;;15.80;99.90;;;;;;5077761;28;20435;-47
2022/09/05 04:54:28;;;;;;;6.30;2.90;;;15.80;99.90;;;;;;5075718;28;20453;-53
2022/09/05 04:57:00;;;;;;;5.63;3.20;;;15.80;99.90;;;;;;5076183;28;20434;-49
2022/09/05 04:59:32;;;;;;;3.90;2.97;;;15.80;99.90;;;;;;5076458;28;20442;-51
2022/09/05 05:02:03;;;;;;;5.37;2.97;;;15.80;99.90;;;;;;5076450;28;20446;-47
2022/09/05 05:04:30;;;;;;;7.07;3.37;;;15.80;99.90;;;;;;5075730;28;20495;-47
2022/09/05 05:07:05;;;;;;;4.20;3.20;;;15.80;99.90;;;;;;5075859;28;20458;-47
2022/09/05 05:09:39;;;;;;;4.37;3.50;;;15.90;99.90;;;;;;5075494;28;20430;-46
2022/09/05 05:12:15;;;;;;;3.07;2.73;;;15.90;99.90;;;;;;5075837;28;20443;-50
2022/09/05 05:14:48;;;;;;;3.70;2.50;;;15.90;99.90;;;;;;5078252;28;20446;-52
2022/09/05 05:17:26;;;;;;;4.83;3.37;;;15.90;99.90;;;;;;5076640;28;20493;-53
2022/09/05 05:20:01;;;;;;;5.70;3.30;;;15.90;99.90;;;;;;5075976;28;20455;-46
2022/09/05 05:22:30;;;;;;;4.97;3.07;;;15.90;99.90;;;;;;5076403;28;20474;-43
2022/09/05 05:24:57;;;;;;;3.50;3.20;;;16.00;99.90;;;;;;5075617;28;20471;-47
2022/09/05 05:27:32;;;;;;;3.37;3.07;;;16.00;99.90;;;;;;5074536;28;20553;-49
2022/09/05 05:30:03;;;;;;;5.80;3.83;;;16.10;99.90;;;;;;5068701;28;20898;-46
2022/09/05 05:32:33;;;;;;;4.67;3.10;;;16.20;99.90;;;;;;5078586;28;20538;-47
2022/09/05 05:35:04;;;;;;;4.07;2.80;;;16.30;99.90;;;;;;5076926;28;20439;-49
2022/09/05 05:37:36;;;;;;;6.13;3.23;;;16.30;99.90;;;;;;5076068;28;20461;-54
2022/09/05 05:40:07;;;;;;;4.30;2.83;;;16.30;99.90;;;;;;5069095;28;20471;-47
2022/09/05 05:42:37;;;;;;;4.30;3.17;;;16.40;99.90;;;;;;5060292;28;20449;-49
2022/09/05 05:45:07;;;;;;;5.73;2.73;;;16.50;99.90;;;;;;5064019;28;20490;-50
2022/09/05 05:47:44;;;;;;;6.03;3.33;;;16.50;99.90;;;;;;5075995;28;20537;-46
2022/09/05 05:50:26;;;;;;;12.30;3.33;;;16.50;99.90;;;;;;5076966;28;20442;-47
2022/09/05 05:53:27;;;;;;;10.10;3.60;;;16.50;99.90;;;;;;5075109;28;20522;-48
2022/09/05 05:56:21;;;;;;;4.37;3.10;;;16.50;99.90;;;;;;5074180;28;20935;-47
2022/09/05 05:59:21;;;;;;;5.50;3.33;;;16.50;99.90;;;;;;5074935;28;20476;-49
2022/09/05 06:02:29;;;;;;;5.33;3.20;;;16.50;99.90;;;;;;5068045;28;20471;-48
2022/09/05 06:05:27;;;;;;;5.80;2.77;;;16.40;99.90;;;;;;5074840;28;20477;-47
2022/09/05 06:08:07;;;;;;;6.37;3.33;;;16.50;99.90;;;;;;5074908;28;20850;-47
2022/09/05 06:11:03;;;;;;;5.10;3.33;;;16.50;99.90;;;;;;5074573;28;21031;-41
2022/09/05 06:13:59;;;;;;;8.20;3.00;;;16.60;99.90;;;;;;5074431;28;20445;-53
2022/09/05 06:17:12;;;;;;;4.03;3.50;;;16.70;99.90;;;;;;5076727;28;20478;-48
2022/09/05 06:20:05;;;;;;;5.10;3.40;;;16.70;99.90;;;;;;5027277;28;20462;-47
2022/09/05 06:23:05;;;;;;;4.40;4.00;;;16.80;99.90;;;;;;5074765;28;20474;-46
2022/09/05 06:26:03;;;;;;;8.00;2.90;;;16.80;99.90;;;;;;5074397;28;20557;-47
2022/09/05 06:28:43;;;;;;;5.97;3.13;;;16.90;99.90;;;;;;5074407;28;20847;-45
2022/09/05 06:31:23;;;;;;;7.13;3.53;;;16.90;99.90;;;;;;5074146;28;20430;-45
2022/09/05 06:34:02;;;;;;;6.97;3.10;;;17.00;99.90;;;;;;5074344;28;20454;-45
2022/09/05 06:36:47;;;;;;;10.70;3.13;;;17.10;99.90;;;;;;5075643;28;20461;-51
2022/09/05 06:39:21;;;;;;;8.80;3.40;;;17.20;99.90;;;;;;5075193;28;20791;-45
2022/09/05 06:42:08;;;;;;;10.10;2.80;;;17.30;99.90;;;;;;5075701;28;20438;-52
2022/09/05 06:45:07;;;;;;;4.20;3.23;;;17.40;99.90;;;;;;5075421;28;20476;-42
2022/09/05 06:47:37;;;;;;;4.23;2.80;;;17.60;99.90;;;;;;5075182;28;20477;-45
2022/09/05 06:50:12;;;;;;;4.97;2.70;;;17.80;99.90;;;;;;5074509;28;20903;-48
2022/09/05 06:53:24;;;;;;;4.17;3.27;;;17.80;99.90;;;;;;5074090;28;20469;-44
2022/09/05 06:56:02;;;;;;;4.63;2.67;;;17.90;99.90;;;;;;5074402;28;20434;-49
2022/09/05 06:59:08;;;;;;;9.63;4.37;;;18.00;99.90;;;;;;5076168;28;20477;-47
2022/09/05 07:01:47;;;;;;;4.43;2.83;;;18.10;99.90;;;;;;5074047;28;20517;-45
2022/09/05 07:04:28;;;;;;;5.60;3.37;;;18.20;99.90;;;;;;5074060;28;20491;-46
2022/09/05 07:07:10;;;;;;;4.67;3.17;;;18.40;99.90;;;;;;5073874;28;20497;-50
2022/09/05 07:09:52;;;;;;;4.30;3.40;;;18.50;99.90;;;;;;5077998;28;20440;-45
2022/09/05 07:12:25;;;;;;;4.47;3.10;;;18.60;99.90;;;;;;5077918;28;20431;-48
2022/09/05 07:15:08;;;;;;;3.87;2.83;;;18.70;99.90;;;;;;5077676;28;20450;-50
2022/09/05 07:17:44;;;;;;;7.93;3.33;;;18.80;99.90;;;;;;5077470;28;20535;-47
2022/09/05 07:20:20;;;;;;;5.80;3.50;;;18.90;99.90;;;;;;5077453;28;20517;-43
2022/09/05 07:22:54;;;;;;;6.23;3.33;;;19.00;99.90;;;;;;5078735;28;20477;-55
2022/09/05 07:25:25;;;;;;;5.60;3.50;;;19.10;99.90;;;;;;5079000;28;20942;-49
2022/09/05 07:27:57;;;;;;;4.50;3.10;;;19.20;99.90;;;;;;5077411;28;20426;-48
2022/09/05 07:30:24;;;;;;;5.77;3.40;;;19.30;99.90;;;;;;5077423;28;20422;-46
2022/09/05 07:32:55;;;;;;;4.20;3.00;;;19.40;99.90;;;;;;5077526;28;20446;-52
2022/09/05 07:35:28;;;;;;;7.50;3.03;;;19.50;99.90;;;;;;5077213;28;20477;-46
2022/09/05 07:38:02;;;;;;;4.30;3.00;;;19.60;99.90;;;;;;5077506;28;20875;-48
2022/09/05 07:40:32;;;;;;;8.77;3.77;;;19.60;99.90;;;;;;5077457;28;20476;-49
2022/09/05 07:43:04;;;;;;;4.00;3.20;;;19.70;99.90;;;;;;5077136;28;20438;-47
2022/09/05 07:45:32;;;;;;;6.30;3.10;;;19.90;99.90;;;;;;5077061;28;20477;-44
2022/09/05 07:48:05;;;;;;;6.87;3.40;;;19.90;99.90;;;;;;5076980;28;20466;-48
2022/09/05 07:50:36;;;;;;;4.23;3.57;;;20.10;99.90;;;;;;5080182;28;20439;-48
2022/09/05 07:53:04;;;;;;;5.47;3.20;;;20.10;99.90;;;;;;5078761;28;20466;-54
2022/09/05 07:55:34;;;;;;;5.03;3.40;;;20.20;99.90;;;;;;5077574;28;20431;-49
2022/09/05 07:58:05;;;;;;;5.23;4.40;;;20.30;99.90;;;;;;5076908;28;20447;-47
2022/09/05 08:00:32;;;;;;;7.60;3.90;;;20.40;99.90;;;;;;5076795;28;20438;-47
2022/09/05 08:03:09;;;;;;;4.37;3.90;;;20.50;99.90;;;;;;5076809;28;20931;-49
2022/09/05 08:05:42;;;;;;;4.80;3.93;;;20.60;99.90;;;;;;5076834;28;20486;-46
2022/09/05 08:08:13;;;;;;;3.30;3.00;;;20.80;99.90;;;;;;5076714;28;20491;-47
2022/09/05 08:10:44;;;;;;;6.50;3.47;;;21.50;99.90;;;;;;5076669;28;20469;-50
2022/09/05 08:13:14;;;;;;;7.50;2.73;;;22.60;99.90;;;;;;5076861;28;20437;-46
2022/09/05 08:15:46;;;;;;;4.17;3.77;;;23.90;99.90;;;;;;5078665;28;20450;-52
2022/09/05 08:18:18;;;;;;;3.50;3.17;;;25.00;97.70;;;;;;5077242;28;20776;-47
2022/09/05 08:20:49;;;;;;;4.60;3.13;;;26.10;91.60;;;;;;5075534;28;20435;-45
2022/09/05 08:23:34;;;;;;;5.03;3.13;;;26.80;85.10;;;;;;5076514;28;20482;-45
2022/09/05 08:26:09;;;;;;;3.57;3.23;;;27.00;81.80;;;;;;5076621;28;20458;-46
2022/09/05 08:28:52;;;;;;;4.83;3.60;;;26.90;78.90;;;;;;5076366;28;20431;-44
2022/09/05 08:31:24;;;;;;;7.40;4.07;;;27.30;76.70;;;;;;5076508;28;20439;-44
2022/09/05 08:33:59;;;;;;;3.47;3.07;;;28.00;74.70;;;;;;5076358;28;20446;-46
2022/09/05 08:36:33;;;;;;;3.60;3.10;;;29.20;70.00;;;;;;5076082;28;20937;-44
2022/09/05 08:39:02;;;;;;;3.80;3.40;;;30.30;65.70;;;;;;5076295;28;20492;-45
2022/09/05 08:41:34;;;;;;;4.63;3.90;;;31.40;60.40;;;;;;5078071;28;20538;-52
2022/09/05 08:44:12;;;;;;;4.60;4.20;;;32.20;57.30;;;;;;5076737;28;20434;-45
2022/09/05 08:46:49;;;;;;;5.07;4.57;;;32.70;54.90;;;;;;5075901;28;20426;-45
2022/09/05 08:50:03;;;;;;;4.63;4.23;;;33.10;53.40;;;;;;5076080;28;20434;-45
2022/09/05 08:52:40;;;;;;;4.70;4.30;;;33.60;51.70;;;;;;5075928;28;20450;-48
2022/09/05 08:55:16;;;;;;;4.47;4.03;;;34.20;50.40;;;;;;5075862;28;20426;-49
2022/09/05 08:58:20;;;;;;;5.10;3.97;;;33.80;49.50;;;;;;5075976;28;20431;-46
2022/09/05 09:00:57;;;;;;;4.00;3.60;;;32.60;50.60;;;;;;5075746;28;20943;-44
2022/09/05 09:03:29;;;;;;;7.93;3.80;;;31.60;51.80;;;;;;5075593;28;20441;-46
2022/09/05 09:06:34;;;;;;;4.90;4.40;;;30.80;53.20;;;;;;5075673;28;20860;-47
2022/09/05 09:09:10;;;;;;;5.37;4.37;;;30.40;54.30;;;;;;5034499;28;20473;-45
2022/09/05 09:11:42;;;;;;;6.20;5.07;;;30.70;54.20;;;;;;5076755;28;20570;-43
2022/09/05 09:14:39;;;;;;;14.37;4.00;;;31.00;54.40;;;;;;5076527;28;20422;-41
2022/09/05 09:17:21;;;;;;;4.70;4.23;;;31.50;54.00;;;;;;5076299;28;20458;-44
2022/09/05 09:19:52;;;;;;;3.37;3.03;;;32.00;53.30;;;;;;5076267;28;20426;-50
2022/09/05 09:22:33;;;;;;;3.93;3.63;;;32.30;52.40;;;;;;5075624;28;20467;-47
2022/09/05 09:25:07;;;;;;;5.43;3.50;;;32.50;51.20;;;;;;5075067;28;20481;-49
2022/09/05 09:27:47;;;;;;;4.53;2.90;;;32.90;50.60;;;;;;5075372;28;20435;-46
2022/09/05 09:30:15;;;;;;;3.40;3.03;;;33.30;50.20;;;;;;5075407;28;20462;-45
2022/09/05 09:32:45;;;;;;;4.13;3.70;;;33.50;49.50;;;;;;5075720;28;20503;-57
2022/09/05 09:35:20;;;;;;;8.87;4.00;;;33.60;49.80;;;;;;5077725;28;20454;-46
2022/09/05 09:38:13;;;;;;;5.23;3.77;;;33.70;49.80;;;;;;5075207;28;20426;-44
2022/09/05 09:40:53;;;;;;;3.47;3.17;;;34.00;49.30;;;;;;5074878;28;20505;-53
2022/09/05 09:43:26;;;;;;;3.80;3.20;;;34.50;48.70;;;;;;5074859;28;20423;-46
2022/09/05 09:46:05;;;;;;;3.63;3.13;;;34.70;47.80;;;;;;5074737;28;20527;-46
2022/09/05 09:48:55;;;;;;;4.63;3.90;;;34.60;47.70;;;;;;5074521;28;20473;-46
2022/09/05 09:51:55;;;;;;;5.23;3.93;;;34.60;47.60;;;;;;5074846;28;20454;-46
2022/09/05 09:55:37;;;;;;;4.43;3.20;;;34.50;47.80;;;;;;5074514;28;20466;-49
2022/09/05 09:58:24;;;;;;;3.77;3.47;;;34.40;47.70;;;;;;5075836;28;20442;-51
2022/09/05 10:01:01;;;;;;;3.87;3.53;;;34.50;46.90;;;;;;5076260;28;20531;-48
2022/09/05 10:03:41;;;;;;;4.10;3.80;;;34.50;47.40;;;;;;5074711;28;20423;-50
2022/09/05 10:06:50;;;;;;;4.37;3.97;;;34.60;47.00;;;;;;5074780;28;20485;-47
2022/09/05 10:09:31;;;;;;;3.40;2.80;;;34.30;47.60;;;;;;5072870;28;20450;-49
2022/09/05 10:12:26;;;;;;;4.60;3.80;;;34.20;47.10;;;;;;5074307;28;20430;-50
2022/09/05 10:15:01;;;;;;;4.80;2.60;;;34.20;47.70;;;;;;5074263;28;20462;-45
2022/09/05 10:17:48;;;;;;;3.30;3.00;;;34.30;47.30;;;;;;5074522;28;20433;-46
2022/09/05 10:20:57;;;;;;;7.57;3.50;;;34.30;47.20;;;;;;5074234;28;20914;-45
2022/09/05 10:23:59;;;;;;;4.77;3.60;;;34.30;47.50;;;;;;5074449;28;20453;-44
2022/09/05 10:27:16;;;;;;;3.80;2.97;;;34.30;47.30;;;;;;5074475;28;20478;-48
2022/09/05 10:30:02;;;;;;;4.93;2.97;;;34.30;47.20;;;;;;5074649;28;20430;-47
2022/09/05 10:32:41;;;;;;;4.83;3.77;;;34.10;47.70;;;;;;5074572;28;20483;-47
2022/09/05 10:35:18;;;;;;;4.70;3.47;;;33.70;48.20;;;;;;5074342;28;20426;-46
2022/09/05 10:37:48;;;;;;;4.40;3.53;;;33.70;47.60;;;;;;5074408;28;21089;-45
2022/09/05 10:40:20;;;;;;;4.40;3.40;;;33.50;48.30;;;;;;5074312;28;20442;-47
2022/09/05 10:42:50;;;;;;;6.90;4.50;;;33.20;48.50;;;;;;5075430;28;20481;-47
2022/09/05 10:45:27;;;;;;;3.93;3.53;;;32.80;48.80;;;;;;5078689;28;20497;-46
2022/09/05 10:48:02;;;;;;;5.77;3.33;;;32.40;49.30;;;;;;5078184;28;20445;-46
2022/09/05 10:50:32;;;;;;;4.07;3.67;;;32.20;50.10;;;;;;5078471;28;20456;-46
2022/09/05 10:53:28;;;;;;;4.27;3.87;;;31.90;50.50;;;;;;5080380;28;20561;-50
2022/09/05 10:56:04;;;;;;;4.33;3.67;;;31.70;50.80;;;;;;5032494;28;20469;-47
2022/09/05 10:58:48;;;;;;;5.60;4.20;;;31.30;51.10;;;;;;5078019;28;20440;-46
2022/09/05 11:01:32;;;;;;;6.47;3.83;;;31.10;51.40;;;;;;5078117;28;20476;-47
2022/09/05 11:04:11;;;;;;;4.30;3.90;;;30.60;53.10;;;;;;5077816;28;20423;-47
2022/09/05 11:06:52;;;;;;;4.40;3.50;;;30.20;53.20;;;;;;5077945;28;20489;-49
2022/09/05 11:09:31;;;;;;;3.57;3.27;;;30.00;52.50;;;;;;5078027;28;20454;-48
2022/09/05 11:12:06;;;;;;;3.70;3.07;;;29.60;53.40;;;;;;5077992;28;20452;-46
2022/09/05 11:14:45;;;;;;;3.13;2.93;;;29.40;54.50;;;;;;5078178;28;20454;-45
2022/09/05 11:17:26;;;;;;;4.77;3.97;;;29.40;54.00;;;;;;5077813;28;20532;-48
2022/09/05 11:20:13;;;;;;;4.50;4.10;;;29.20;54.60;;;;;;5077887;28;20466;-46
2022/09/05 11:22:43;;;;;;;5.07;3.83;;;28.90;54.70;;;;;;5060967;28;20454;-47
2022/09/05 11:25:19;;;;;;;4.30;3.80;;;28.70;55.00;;;;;;5077928;28;20492;-46
2022/09/05 11:27:49;;;;;;;4.10;3.77;;;28.50;56.40;;;;;;5077556;28;20429;-53
2022/09/05 11:30:18;;;;;;;4.70;4.20;;;28.30;56.40;;;;;;5077689;28;20901;-47
2022/09/05 11:33:27;;;;;;;7.67;5.43;;;28.10;56.30;;;;;;5077454;28;20442;-47
2022/09/05 11:35:57;;;;;;;5.57;3.67;;;28.10;57.30;;;;;;5077562;28;20798;-48
2022/09/05 11:39:00;;;;;;;6.87;3.73;;;27.90;57.70;;;;;;5077501;28;20438;-46
2022/09/05 11:41:50;;;;;;;3.73;3.43;;;27.70;57.00;;;;;;5078629;28;20557;-52
2022/09/05 11:44:33;;;;;;;4.23;3.70;;;27.70;57.30;;;;;;5065938;28;20469;-48
2022/09/05 11:47:42;;;;;;;4.07;3.50;;;27.60;57.10;;;;;;5078573;28;20543;-46
2022/09/05 11:50:45;;;;;;;4.40;3.40;;;27.40;57.40;;;;;;5078165;28;20423;-48
2022/09/05 11:53:56;;;;;;;5.50;3.80;;;27.30;57.70;;;;;;5076943;28;20474;-47
2022/09/05 11:57:03;;;;;;;3.67;3.37;;;27.20;58.20;;;;;;5076796;28;20865;-47
2022/09/05 12:00:08;;;;;;;5.77;4.53;;;27.20;58.70;;;;;;5077268;28;20441;-45
2022/09/05 12:03:13;;;;;;;6.83;4.37;;;27.10;58.90;;;;;;5077202;28;20605;-46
2022/09/05 12:06:13;;;;;;;5.30;4.60;;;27.20;59.40;;;;;;5077065;28;20528;-48
2022/09/05 12:08:46;;;;;;;4.90;4.13;;;27.20;58.40;;;;;;5042851;28;20502;-43
2022/09/05 12:11:25;;;;;;;5.30;4.13;;;27.20;59.30;;;;;;5076840;28;20478;-47
2022/09/05 12:13:59;;;;;;;6.13;4.77;;;27.20;58.50;;;;;;5078480;28;20476;-50
2022/09/05 12:16:47;;;;;;;4.60;4.20;;;27.10;58.50;;;;;;5076599;28;20899;-44
2022/09/05 12:19:32;;;;;;;4.87;4.43;;;27.10;59.30;;;;;;5076619;28;21686;-45
2022/09/05 12:22:24;;;;;;;5.23;4.73;;;27.10;59.30;;;;;;5076753;28;20875;-46
2022/09/05 12:25:11;;;;;;;4.03;3.73;;;27.10;59.60;;;;;;5076584;28;20470;-46
2022/09/05 12:27:41;;;;;;;4.73;4.33;;;27.00;58.80;;;;;;5076568;28;20883;-44
2022/09/05 12:30:13;;;;;;;5.07;4.60;;;27.10;59.40;;;;;;5076677;28;20500;-48
2022/09/05 12:32:49;;;;;;;4.77;4.33;;;27.10;59.00;;;;;;5076426;28;20427;-47
2022/09/05 12:35:30;;;;;;;6.77;4.30;;;27.10;59.30;;;;;;5077357;28;20442;-45
2022/09/05 12:38:03;;;;;;;4.23;3.83;;;27.10;58.80;;;;;;5060505;28;20457;-60
2022/09/05 12:40:34;;;;;;;5.90;5.30;;;27.00;60.00;;;;;;5077224;28;20415;-44
2022/09/05 12:43:04;;;;;;;6.10;5.00;;;27.00;59.20;;;;;;5076471;28;20518;-46
2022/09/05 12:45:40;;;;;;;5.47;4.97;;;27.10;60.00;;;;;;5077086;28;20486;-50
2022/09/05 12:48:12;;;;;;;5.17;4.67;;;27.20;59.10;;;;;;5075932;28;20473;-47
2022/09/05 12:50:48;;;;;;;6.67;4.03;;;27.20;59.10;;;;;;5076545;28;20446;-47
2022/09/05 12:53:19;;;;;;;5.20;4.80;;;27.20;59.00;;;;;;5076823;28;20486;-50
2022/09/05 12:55:51;;;;;;;4.70;4.30;;;27.10;60.70;;;;;;5076454;28;20886;-46
2022/09/05 12:58:23;;;;;;;6.00;5.13;;;27.10;59.60;;;;;;5076776;28;20474;-47
2022/09/05 13:00:56;;;;;;;4.77;4.30;;;27.00;59.10;;;;;;5076087;28;20455;-45
2022/09/05 13:03:29;;;;;;;4.80;4.30;;;27.00;59.10;;;;;;5077072;28;20513;-56
2022/09/05 13:06:05;;;;;;;5.97;4.90;;;27.00;59.20;;;;;;5076361;28;20550;-45
2022/09/05 13:08:46;;;;;;;6.93;5.73;;;26.90;59.60;;;;;;5075592;28;20446;-43
2022/09/05 13:11:15;;;;;;;5.30;4.10;;;27.00;59.50;;;;;;5075598;28;20445;-48
2022/09/05 13:13:47;;;;;;;4.70;4.30;;;27.00;59.90;;;;;;5075515;28;20449;-50
2022/09/05 13:16:21;;;;;;;4.50;4.10;;;27.20;59.50;;;;;;5075401;28;20469;-44
2022/09/05 13:18:52;;;;;;;4.33;3.93;;;27.20;59.80;;;;;;5075488;28;20470;-49
2022/09/05 13:21:24;;;;;;;4.90;4.17;;;27.30;59.20;;;;;;5075259;28;21101;-45
2022/09/05 13:24:03;;;;;;;5.00;4.50;;;27.50;59.30;;;;;;5075463;28;20561;-46
2022/09/05 13:26:35;;;;;;;5.00;4.10;;;27.70;58.50;;;;;;5075378;28;20555;-49
2022/09/05 13:29:10;;;;;;;5.97;4.30;;;27.80;58.10;;;;;;5075575;28;20427;-47
2022/09/05 13:32:03;;;;;;;41.77;27.60;;;27.80;57.70;;;;;;5075678;28;20498;-44
2022/09/05 13:34:35;;;;;;;10.27;8.30;;;27.70;58.90;;;;;;5077516;28;20447;-50
2022/09/05 13:37:07;;;;;;;8.13;5.37;;;27.40;59.20;;;;;;5075083;28;20485;-45
2022/09/05 13:39:46;;;;;;;13.80;10.53;;;27.30;59.00;;;;;;5075323;28;20427;-45
2022/09/05 13:42:17;;;;;;;10.33;7.47;;;27.20;59.30;;;;;;5075138;28;20472;-43
2022/09/05 13:44:46;;;;;;;6.87;5.93;;;27.10;59.80;;;;;;5076481;28;20438;-51
2022/09/05 13:47:30;;;;;;;5.70;5.20;;;27.10;59.50;;;;;;5076065;28;20478;-44
2022/09/05 13:50:12;;;;;;;5.73;5.23;;;27.10;60.10;;;;;;5075123;28;20473;-46
2022/09/05 13:52:42;;;;;;;6.23;5.63;;;26.90;60.20;;;;;;5075094;28;20752;-45
2022/09/05 13:55:36;;;;;;;8.47;7.40;;;26.80;59.80;;;;;;5074931;28;20470;-47
2022/09/05 13:58:07;;;;;;;15.27;12.60;;;26.60;60.20;;;;;;5071652;28;20454;-49